sensor_id;sensor_type;location;lat;lon;timestamp;P1;durP1;ratioP1;P2;durP2;ratioP2
24143;SDS011;12307;50.828;6.080;2023-11-21T00:01:35;1.35;;;1.02;;
24143;SDS011;12307;50.828;6.080;2023-11-21T00:04:03;1.05;;;0.95;;
24143;SDS011;12307;50.828;6.080;2023-11-21T00:06:29;1.13;;;0.93;;
24143;SDS011;12307;50.828;6.080;2023-11-21T00:08:55;1.25;;;1.10;;
24143;SDS011;12307;50.828;6.080;2023-11-21T00:11:21;1.58;;;1.02;;
24143;SDS011;12307;50.828;6.080;2023-11-21T00:13:46;1.27;;;0.90;;
24143;SDS011;12307;50.828;6.080;2023-11-21T00:16:12;1.30;;;1.20;;
24143;SDS011;12307;50.828;6.080;2023-11-21T00:18:38;1.10;;;1.00;;
24143;SDS011;12307;50.828;6.080;2023-11-21T00:21:06;1.33;;;1.00;;
24143;SDS011;12307;50.828;6.080;2023-11-21T00:23:31;1.25;;;0.90;;
24143;SDS011;12307;50.828;6.080;2023-11-21T00:25:57;1.27;;;1.10;;
24143;SDS011;12307;50.828;6.080;2023-11-21T00:28:23;1.20;;;1.00;;
24143;SDS011;12307;50.828;6.080;2023-11-21T00:30:50;1.55;;;1.10;;
24143;SDS011;12307;50.828;6.080;2023-11-21T00:33:15;1.70;;;1.10;;
24143;SDS011;12307;50.828;6.080;2023-11-21T00:35:41;1.50;;;1.00;;
24143;SDS011;12307;50.828;6.080;2023-11-21T00:38:08;1.42;;;1.20;;
24143;SDS011;12307;50.828;6.080;2023-11-21T00:40:34;1.35;;;1.10;;
24143;SDS011;12307;50.828;6.080;2023-11-21T00:43:00;1.25;;;1.05;;
24143;SDS011;12307;50.828;6.080;2023-11-21T00:45:26;1.30;;;1.20;;
24143;SDS011;12307;50.828;6.080;2023-11-21T00:47:51;1.20;;;1.10;;
24143;SDS011;12307;50.828;6.080;2023-11-21T00:50:17;1.35;;;1.15;;
24143;SDS011;12307;50.828;6.080;2023-11-21T00:52:44;1.88;;;1.20;;
24143;SDS011;12307;50.828;6.080;2023-11-21T00:55:11;1.75;;;1.10;;
24143;SDS011;12307;50.828;6.080;2023-11-21T00:57:37;1.65;;;1.20;;
24143;SDS011;12307;50.828;6.080;2023-11-21T01:00:03;1.52;;;1.15;;
24143;SDS011;12307;50.828;6.080;2023-11-21T01:02:41;1.27;;;1.10;;
24143;SDS011;12307;50.828;6.080;2023-11-21T01:05:08;1.48;;;1.17;;
24143;SDS011;12307;50.828;6.080;2023-11-21T01:07:34;1.20;;;1.10;;
24143;SDS011;12307;50.828;6.080;2023-11-21T01:10:01;1.92;;;1.00;;
24143;SDS011;12307;50.828;6.080;2023-11-21T01:12:28;1.23;;;0.93;;
24143;SDS011;12307;50.828;6.080;2023-11-21T01:14:54;2.17;;;1.20;;
24143;SDS011;12307;50.828;6.080;2023-11-21T01:17:20;1.33;;;1.13;;
24143;SDS011;12307;50.828;6.080;2023-11-21T01:19:47;1.38;;;1.10;;
24143;SDS011;12307;50.828;6.080;2023-11-21T01:22:13;1.27;;;1.02;;
24143;SDS011;12307;50.828;6.080;2023-11-21T01:24:40;1.35;;;1.10;;
24143;SDS011;12307;50.828;6.080;2023-11-21T01:27:06;1.58;;;1.20;;
24143;SDS011;12307;50.828;6.080;2023-11-21T01:29:33;1.35;;;1.13;;
24143;SDS011;12307;50.828;6.080;2023-11-21T01:32:00;1.25;;;1.00;;
24143;SDS011;12307;50.828;6.080;2023-11-21T01:34:27;1.75;;;1.30;;
24143;SDS011;12307;50.828;6.080;2023-11-21T01:36:53;1.40;;;1.13;;
24143;SDS011;12307;50.828;6.080;2023-11-21T01:39:19;1.60;;;1.20;;
24143;SDS011;12307;50.828;6.080;2023-11-21T01:41:48;1.48;;;1.38;;
24143;SDS011;12307;50.828;6.080;2023-11-21T01:44:14;1.25;;;1.13;;
24143;SDS011;12307;50.828;6.080;2023-11-21T01:46:43;1.60;;;1.20;;
24143;SDS011;12307;50.828;6.080;2023-11-21T01:49:09;1.25;;;0.98;;
24143;SDS011;12307;50.828;6.080;2023-11-21T01:51:38;1.30;;;1.20;;
24143;SDS011;12307;50.828;6.080;2023-11-21T01:54:04;1.40;;;1.20;;
24143;SDS011;12307;50.828;6.080;2023-11-21T01:56:30;1.27;;;1.05;;
24143;SDS011;12307;50.828;6.080;2023-11-21T01:58:57;1.52;;;1.10;;
24143;SDS011;12307;50.828;6.080;2023-11-21T02:01:23;1.17;;;1.08;;
24143;SDS011;12307;50.828;6.080;2023-11-21T02:03:50;1.60;;;1.23;;
24143;SDS011;12307;50.828;6.080;2023-11-21T02:06:15;1.05;;;0.98;;
24143;SDS011;12307;50.828;6.080;2023-11-21T02:08:41;1.52;;;1.27;;
24143;SDS011;12307;50.828;6.080;2023-11-21T02:11:09;1.33;;;1.05;;
24143;SDS011;12307;50.828;6.080;2023-11-21T02:13:37;1.25;;;1.10;;
24143;SDS011;12307;50.828;6.080;2023-11-21T02:16:03;1.73;;;1.20;;
24143;SDS011;12307;50.828;6.080;2023-11-21T02:18:31;1.27;;;1.02;;
24143;SDS011;12307;50.828;6.080;2023-11-21T02:20:58;1.25;;;1.10;;
24143;SDS011;12307;50.828;6.080;2023-11-21T02:23:25;1.33;;;1.10;;
24143;SDS011;12307;50.828;6.080;2023-11-21T02:25:53;1.73;;;1.25;;
24143;SDS011;12307;50.828;6.080;2023-11-21T02:28:19;1.40;;;1.30;;
24143;SDS011;12307;50.828;6.080;2023-11-21T02:30:50;1.15;;;1.05;;
24143;SDS011;12307;50.828;6.080;2023-11-21T02:33:20;1.15;;;1.08;;
24143;SDS011;12307;50.828;6.080;2023-11-21T02:35:46;1.58;;;1.42;;
24143;SDS011;12307;50.828;6.080;2023-11-21T02:38:12;1.40;;;1.20;;
24143;SDS011;12307;50.828;6.080;2023-11-21T02:40:39;1.35;;;1.10;;
24143;SDS011;12307;50.828;6.080;2023-11-21T02:43:04;1.25;;;1.05;;
24143;SDS011;12307;50.828;6.080;2023-11-21T02:45:31;1.50;;;1.38;;
24143;SDS011;12307;50.828;6.080;2023-11-21T02:47:57;1.67;;;1.17;;
24143;SDS011;12307;50.828;6.080;2023-11-21T02:50:22;1.40;;;1.25;;
24143;SDS011;12307;50.828;6.080;2023-11-21T02:52:48;1.20;;;1.10;;
24143;SDS011;12307;50.828;6.080;2023-11-21T02:55:14;1.60;;;1.38;;
24143;SDS011;12307;50.828;6.080;2023-11-21T02:57:41;1.77;;;1.17;;
24143;SDS011;12307;50.828;6.080;2023-11-21T03:00:07;1.20;;;1.10;;
24143;SDS011;12307;50.828;6.080;2023-11-21T03:02:34;1.38;;;1.25;;
24143;SDS011;12307;50.828;6.080;2023-11-21T03:05:04;1.33;;;1.10;;
24143;SDS011;12307;50.828;6.080;2023-11-21T03:07:30;1.60;;;1.30;;
24143;SDS011;12307;50.828;6.080;2023-11-21T03:09:56;1.30;;;1.20;;
24143;SDS011;12307;50.828;6.080;2023-11-21T03:12:22;1.38;;;1.27;;
24143;SDS011;12307;50.828;6.080;2023-11-21T03:14:49;1.58;;;1.17;;
24143;SDS011;12307;50.828;6.080;2023-11-21T03:17:15;1.42;;;1.20;;
24143;SDS011;12307;50.828;6.080;2023-11-21T03:19:41;1.55;;;1.20;;
24143;SDS011;12307;50.828;6.080;2023-11-21T03:22:07;1.75;;;1.23;;
24143;SDS011;12307;50.828;6.080;2023-11-21T03:24:33;1.70;;;1.45;;
24143;SDS011;12307;50.828;6.080;2023-11-21T03:26:59;1.17;;;1.08;;
24143;SDS011;12307;50.828;6.080;2023-11-21T03:29:25;1.30;;;1.20;;
24143;SDS011;12307;50.828;6.080;2023-11-21T03:31:52;1.40;;;1.25;;
24143;SDS011;12307;50.828;6.080;2023-11-21T03:34:22;1.20;;;1.10;;
24143;SDS011;12307;50.828;6.080;2023-11-21T03:36:50;1.55;;;1.33;;
24143;SDS011;12307;50.828;6.080;2023-11-21T03:39:16;1.70;;;1.27;;
24143;SDS011;12307;50.828;6.080;2023-11-21T03:41:41;1.17;;;1.08;;
24143;SDS011;12307;50.828;6.080;2023-11-21T03:44:07;1.50;;;1.25;;
24143;SDS011;12307;50.828;6.080;2023-11-21T03:46:33;1.35;;;1.13;;
24143;SDS011;12307;50.828;6.080;2023-11-21T03:49:02;1.40;;;1.10;;
24143;SDS011;12307;50.828;6.080;2023-11-21T03:51:29;1.40;;;1.10;;
24143;SDS011;12307;50.828;6.080;2023-11-21T03:53:55;1.92;;;1.33;;
24143;SDS011;12307;50.828;6.080;2023-11-21T03:56:21;1.52;;;1.42;;
24143;SDS011;12307;50.828;6.080;2023-11-21T03:58:46;1.50;;;1.20;;
24143;SDS011;12307;50.828;6.080;2023-11-21T04:01:18;1.30;;;1.20;;
24143;SDS011;12307;50.828;6.080;2023-11-21T04:03:45;1.58;;;1.17;;
24143;SDS011;12307;50.828;6.080;2023-11-21T04:06:12;1.40;;;1.25;;
24143;SDS011;12307;50.828;6.080;2023-11-21T04:08:38;1.40;;;1.13;;
24143;SDS011;12307;50.828;6.080;2023-11-21T04:11:04;1.55;;;1.30;;
24143;SDS011;12307;50.828;6.080;2023-11-21T04:13:30;1.70;;;1.20;;
24143;SDS011;12307;50.828;6.080;2023-11-21T04:15:56;1.40;;;1.25;;
24143;SDS011;12307;50.828;6.080;2023-11-21T04:18:21;0.93;;;0.90;;
24143;SDS011;12307;50.828;6.080;2023-11-21T04:20:48;1.23;;;1.13;;
24143;SDS011;12307;50.828;6.080;2023-11-21T04:23:15;1.20;;;1.10;;
24143;SDS011;12307;50.828;6.080;2023-11-21T04:25:41;1.63;;;1.30;;
24143;SDS011;12307;50.828;6.080;2023-11-21T04:28:06;1.60;;;1.30;;
24143;SDS011;12307;50.828;6.080;2023-11-21T04:30:32;1.38;;;1.10;;
24143;SDS011;12307;50.828;6.080;2023-11-21T04:32:58;1.42;;;1.08;;
24143;SDS011;12307;50.828;6.080;2023-11-21T04:35:24;1.00;;;0.90;;
24143;SDS011;12307;50.828;6.080;2023-11-21T04:37:49;1.63;;;1.10;;
24143;SDS011;12307;50.828;6.080;2023-11-21T04:40:17;1.83;;;1.25;;
24143;SDS011;12307;50.828;6.080;2023-11-21T04:42:43;1.33;;;1.10;;
24143;SDS011;12307;50.828;6.080;2023-11-21T04:45:09;1.38;;;1.20;;
24143;SDS011;12307;50.828;6.080;2023-11-21T04:47:36;2.35;;;1.40;;
24143;SDS011;12307;50.828;6.080;2023-11-21T04:50:02;1.30;;;1.20;;
24143;SDS011;12307;50.828;6.080;2023-11-21T04:52:28;1.40;;;1.00;;
24143;SDS011;12307;50.828;6.080;2023-11-21T04:54:54;1.85;;;1.20;;
24143;SDS011;12307;50.828;6.080;2023-11-21T04:57:21;1.35;;;1.10;;
24143;SDS011;12307;50.828;6.080;2023-11-21T04:59:47;2.05;;;1.40;;
24143;SDS011;12307;50.828;6.080;2023-11-21T05:02:13;1.77;;;1.30;;
24143;SDS011;12307;50.828;6.080;2023-11-21T05:04:39;1.40;;;1.20;;
24143;SDS011;12307;50.828;6.080;2023-11-21T05:07:04;1.42;;;1.20;;
24143;SDS011;12307;50.828;6.080;2023-11-21T05:09:30;1.40;;;1.10;;
24143;SDS011;12307;50.828;6.080;2023-11-21T05:11:57;1.98;;;1.38;;
24143;SDS011;12307;50.828;6.080;2023-11-21T05:14:24;1.17;;;1.08;;
24143;SDS011;12307;50.828;6.080;2023-11-21T05:16:50;1.30;;;1.10;;
24143;SDS011;12307;50.828;6.080;2023-11-21T05:19:17;1.30;;;1.00;;
24143;SDS011;12307;50.828;6.080;2023-11-21T05:21:42;1.50;;;1.20;;
24143;SDS011;12307;50.828;6.080;2023-11-21T05:24:08;1.73;;;1.27;;
24143;SDS011;12307;50.828;6.080;2023-11-21T05:26:34;1.38;;;1.20;;
24143;SDS011;12307;50.828;6.080;2023-11-21T05:29:00;1.40;;;1.30;;
24143;SDS011;12307;50.828;6.080;2023-11-21T05:31:27;2.33;;;1.40;;
24143;SDS011;12307;50.828;6.080;2023-11-21T05:33:53;1.40;;;1.20;;
24143;SDS011;12307;50.828;6.080;2023-11-21T05:36:19;2.05;;;1.30;;
24143;SDS011;12307;50.828;6.080;2023-11-21T05:38:44;1.20;;;1.10;;
24143;SDS011;12307;50.828;6.080;2023-11-21T05:41:11;1.70;;;1.10;;
24143;SDS011;12307;50.828;6.080;2023-11-21T05:43:38;1.45;;;1.35;;
24143;SDS011;12307;50.828;6.080;2023-11-21T05:46:04;1.30;;;1.02;;
24143;SDS011;12307;50.828;6.080;2023-11-21T05:48:33;1.17;;;1.08;;
24143;SDS011;12307;50.828;6.080;2023-11-21T05:50:59;1.48;;;1.20;;
24143;SDS011;12307;50.828;6.080;2023-11-21T05:53:26;2.22;;;1.10;;
24143;SDS011;12307;50.828;6.080;2023-11-21T05:55:52;1.30;;;1.15;;
24143;SDS011;12307;50.828;6.080;2023-11-21T05:58:18;1.73;;;1.20;;
24143;SDS011;12307;50.828;6.080;2023-11-21T06:00:43;1.75;;;1.40;;
24143;SDS011;12307;50.828;6.080;2023-11-21T06:03:09;1.40;;;1.30;;
24143;SDS011;12307;50.828;6.080;2023-11-21T06:05:36;1.45;;;1.23;;
24143;SDS011;12307;50.828;6.080;2023-11-21T06:08:02;1.30;;;1.20;;
24143;SDS011;12307;50.828;6.080;2023-11-21T06:10:28;1.17;;;1.08;;
24143;SDS011;12307;50.828;6.080;2023-11-21T06:12:54;1.20;;;1.10;;
24143;SDS011;12307;50.828;6.080;2023-11-21T06:15:20;1.48;;;1.25;;
24143;SDS011;12307;50.828;6.080;2023-11-21T06:17:48;1.20;;;1.10;;
24143;SDS011;12307;50.828;6.080;2023-11-21T06:20:20;1.20;;;1.10;;
24143;SDS011;12307;50.828;6.080;2023-11-21T06:22:48;1.50;;;1.40;;
24143;SDS011;12307;50.828;6.080;2023-11-21T06:25:15;1.30;;;1.13;;
24143;SDS011;12307;50.828;6.080;2023-11-21T06:27:42;1.10;;;1.00;;
24143;SDS011;12307;50.828;6.080;2023-11-21T06:30:10;1.50;;;1.15;;
24143;SDS011;12307;50.828;6.080;2023-11-21T06:32:37;1.33;;;1.23;;
24143;SDS011;12307;50.828;6.080;2023-11-21T06:35:03;1.33;;;1.23;;
24143;SDS011;12307;50.828;6.080;2023-11-21T06:37:30;1.20;;;1.10;;
24143;SDS011;12307;50.828;6.080;2023-11-21T06:39:58;1.30;;;1.20;;
24143;SDS011;12307;50.828;6.080;2023-11-21T06:42:24;1.83;;;1.20;;
24143;SDS011;12307;50.828;6.080;2023-11-21T06:44:50;1.70;;;1.35;;
24143;SDS011;12307;50.828;6.080;2023-11-21T06:47:22;1.55;;;1.25;;
24143;SDS011;12307;50.828;6.080;2023-11-21T06:49:50;1.80;;;1.20;;
24143;SDS011;12307;50.828;6.080;2023-11-21T06:52:16;1.70;;;1.27;;
24143;SDS011;12307;50.828;6.080;2023-11-21T06:54:42;2.10;;;1.50;;
24143;SDS011;12307;50.828;6.080;2023-11-21T06:57:09;1.70;;;1.50;;
24143;SDS011;12307;50.828;6.080;2023-11-21T06:59:34;1.42;;;1.33;;
24143;SDS011;12307;50.828;6.080;2023-11-21T07:02:01;1.30;;;1.20;;
24143;SDS011;12307;50.828;6.080;2023-11-21T07:04:26;1.35;;;1.23;;
24143;SDS011;12307;50.828;6.080;2023-11-21T07:06:52;1.40;;;1.30;;
24143;SDS011;12307;50.828;6.080;2023-11-21T07:09:18;1.30;;;1.20;;
24143;SDS011;12307;50.828;6.080;2023-11-21T07:11:47;2.20;;;1.55;;
24143;SDS011;12307;50.828;6.080;2023-11-21T07:14:14;1.50;;;1.40;;
24143;SDS011;12307;50.828;6.080;2023-11-21T07:16:42;1.52;;;1.23;;
24143;SDS011;12307;50.828;6.080;2023-11-21T07:19:07;2.03;;;1.40;;
24143;SDS011;12307;50.828;6.080;2023-11-21T07:21:36;1.98;;;1.63;;
24143;SDS011;12307;50.828;6.080;2023-11-21T07:24:02;1.95;;;1.60;;
24143;SDS011;12307;50.828;6.080;2023-11-21T07:26:28;2.47;;;1.70;;
24143;SDS011;12307;50.828;6.080;2023-11-21T07:28:54;1.42;;;1.33;;
24143;SDS011;12307;50.828;6.080;2023-11-21T07:31:22;2.40;;;1.27;;
24143;SDS011;12307;50.828;6.080;2023-11-21T07:33:49;1.70;;;1.40;;
24143;SDS011;12307;50.828;6.080;2023-11-21T07:36:16;1.80;;;1.55;;
24143;SDS011;12307;50.828;6.080;2023-11-21T07:38:43;1.58;;;1.48;;
24143;SDS011;12307;50.828;6.080;2023-11-21T07:41:09;1.85;;;1.52;;
24143;SDS011;12307;50.828;6.080;2023-11-21T07:43:36;2.15;;;1.63;;
24143;SDS011;12307;50.828;6.080;2023-11-21T07:46:02;1.73;;;1.48;;
24143;SDS011;12307;50.828;6.080;2023-11-21T07:48:30;1.75;;;1.65;;
24143;SDS011;12307;50.828;6.080;2023-11-21T07:50:56;1.83;;;1.58;;
24143;SDS011;12307;50.828;6.080;2023-11-21T07:53:23;1.73;;;1.38;;
24143;SDS011;12307;50.828;6.080;2023-11-21T07:55:50;2.05;;;1.80;;
24143;SDS011;12307;50.828;6.080;2023-11-21T07:58:15;2.10;;;1.65;;
24143;SDS011;12307;50.828;6.080;2023-11-21T08:00:41;1.75;;;1.48;;
24143;SDS011;12307;50.828;6.080;2023-11-21T08:03:07;2.00;;;1.38;;
24143;SDS011;12307;50.828;6.080;2023-11-21T08:05:34;1.80;;;1.35;;
24143;SDS011;12307;50.828;6.080;2023-11-21T08:08:00;2.10;;;1.50;;
24143;SDS011;12307;50.828;6.080;2023-11-21T08:10:26;2.70;;;1.95;;
24143;SDS011;12307;50.828;6.080;2023-11-21T08:12:51;2.75;;;1.77;;
24143;SDS011;12307;50.828;6.080;2023-11-21T08:15:18;2.72;;;1.90;;
24143;SDS011;12307;50.828;6.080;2023-11-21T08:17:46;2.97;;;2.33;;
24143;SDS011;12307;50.828;6.080;2023-11-21T08:20:11;4.95;;;3.13;;
24143;SDS011;12307;50.828;6.080;2023-11-21T08:22:39;4.85;;;3.13;;
24143;SDS011;12307;50.828;6.080;2023-11-21T08:25:06;5.43;;;3.97;;
24143;SDS011;12307;50.828;6.080;2023-11-21T08:27:33;5.68;;;3.67;;
24143;SDS011;12307;50.828;6.080;2023-11-21T08:29:59;5.22;;;3.58;;
24143;SDS011;12307;50.828;6.080;2023-11-21T08:32:25;5.35;;;3.53;;
24143;SDS011;12307;50.828;6.080;2023-11-21T08:34:51;5.32;;;3.42;;
24143;SDS011;12307;50.828;6.080;2023-11-21T08:37:17;6.45;;;3.83;;
24143;SDS011;12307;50.828;6.080;2023-11-21T08:39:44;6.57;;;4.00;;
24143;SDS011;12307;50.828;6.080;2023-11-21T08:42:10;5.03;;;3.75;;
24143;SDS011;12307;50.828;6.080;2023-11-21T08:44:36;5.57;;;3.50;;
24143;SDS011;12307;50.828;6.080;2023-11-21T08:47:01;5.00;;;3.72;;
24143;SDS011;12307;50.828;6.080;2023-11-21T08:49:29;5.05;;;3.38;;
24143;SDS011;12307;50.828;6.080;2023-11-21T08:51:55;4.80;;;3.60;;
24143;SDS011;12307;50.828;6.080;2023-11-21T08:54:22;6.03;;;3.70;;
24143;SDS011;12307;50.828;6.080;2023-11-21T08:56:49;6.13;;;4.00;;
24143;SDS011;12307;50.828;6.080;2023-11-21T08:59:15;5.68;;;3.67;;
24143;SDS011;12307;50.828;6.080;2023-11-21T09:01:41;5.65;;;3.80;;
24143;SDS011;12307;50.828;6.080;2023-11-21T09:04:07;4.82;;;3.60;;
24143;SDS011;12307;50.828;6.080;2023-11-21T09:06:33;5.75;;;3.70;;
24143;SDS011;12307;50.828;6.080;2023-11-21T09:08:59;4.82;;;3.10;;
24143;SDS011;12307;50.828;6.080;2023-11-21T09:11:24;5.10;;;3.78;;
24143;SDS011;12307;50.828;6.080;2023-11-21T09:13:53;5.85;;;3.70;;
24143;SDS011;12307;50.828;6.080;2023-11-21T09:16:19;3.85;;;3.30;;
24143;SDS011;12307;50.828;6.080;2023-11-21T09:18:45;5.15;;;3.35;;
24143;SDS011;12307;50.828;6.080;2023-11-21T09:21:10;4.65;;;3.30;;
24143;SDS011;12307;50.828;6.080;2023-11-21T09:23:36;4.68;;;3.30;;
24143;SDS011;12307;50.828;6.080;2023-11-21T09:26:02;3.65;;;2.97;;
24143;SDS011;12307;50.828;6.080;2023-11-21T09:28:27;4.07;;;3.05;;
24143;SDS011;12307;50.828;6.080;2023-11-21T09:30:55;4.60;;;2.95;;
24143;SDS011;12307;50.828;6.080;2023-11-21T09:33:20;3.35;;;2.65;;
24143;SDS011;12307;50.828;6.080;2023-11-21T09:35:47;4.70;;;3.28;;
24143;SDS011;12307;50.828;6.080;2023-11-21T09:38:13;4.18;;;3.15;;
24143;SDS011;12307;50.828;6.080;2023-11-21T09:40:39;4.18;;;3.20;;
24143;SDS011;12307;50.828;6.080;2023-11-21T09:43:05;5.60;;;3.42;;
24143;SDS011;12307;50.828;6.080;2023-11-21T09:45:34;4.22;;;2.85;;
24143;SDS011;12307;50.828;6.080;2023-11-21T09:48:02;4.78;;;3.53;;
24143;SDS011;12307;50.828;6.080;2023-11-21T09:50:28;4.70;;;3.28;;
24143;SDS011;12307;50.828;6.080;2023-11-21T09:52:54;3.60;;;2.83;;
24143;SDS011;12307;50.828;6.080;2023-11-21T09:55:23;4.43;;;3.30;;
24143;SDS011;12307;50.828;6.080;2023-11-21T09:57:51;4.68;;;3.28;;
24143;SDS011;12307;50.828;6.080;2023-11-21T10:00:18;5.53;;;3.10;;
24143;SDS011;12307;50.828;6.080;2023-11-21T10:02:48;4.20;;;3.20;;
24143;SDS011;12307;50.828;6.080;2023-11-21T10:05:16;4.18;;;3.30;;
24143;SDS011;12307;50.828;6.080;2023-11-21T10:07:43;4.85;;;3.33;;
24143;SDS011;12307;50.828;6.080;2023-11-21T10:10:10;4.20;;;3.22;;
24143;SDS011;12307;50.828;6.080;2023-11-21T10:12:36;4.53;;;3.58;;
24143;SDS011;12307;50.828;6.080;2023-11-21T10:15:03;4.18;;;3.30;;
24143;SDS011;12307;50.828;6.080;2023-11-21T10:17:33;5.22;;;3.70;;
24143;SDS011;12307;50.828;6.080;2023-11-21T10:20:08;6.05;;;3.67;;
24143;SDS011;12307;50.828;6.080;2023-11-21T10:22:38;4.47;;;3.47;;
24143;SDS011;12307;50.828;6.080;2023-11-21T10:25:06;3.88;;;3.25;;
24143;SDS011;12307;50.828;6.080;2023-11-21T10:27:33;4.85;;;3.60;;
24143;SDS011;12307;50.828;6.080;2023-11-21T10:30:00;4.85;;;3.38;;
24143;SDS011;12307;50.828;6.080;2023-11-21T10:32:27;4.03;;;3.28;;
24143;SDS011;12307;50.828;6.080;2023-11-21T10:34:56;4.30;;;3.10;;
24143;SDS011;12307;50.828;6.080;2023-11-21T10:37:22;4.35;;;3.10;;
24143;SDS011;12307;50.828;6.080;2023-11-21T10:39:49;4.20;;;3.20;;
24143;SDS011;12307;50.828;6.080;2023-11-21T10:42:15;4.10;;;3.17;;
24143;SDS011;12307;50.828;6.080;2023-11-21T10:44:45;3.72;;;3.20;;
24143;SDS011;12307;50.828;6.080;2023-11-21T10:47:11;4.97;;;3.60;;
24143;SDS011;12307;50.828;6.080;2023-11-21T10:49:37;4.65;;;3.35;;
24143;SDS011;12307;50.828;6.080;2023-11-21T10:52:03;4.07;;;3.22;;
24143;SDS011;12307;50.828;6.080;2023-11-21T10:54:30;3.70;;;3.08;;
24143;SDS011;12307;50.828;6.080;2023-11-21T10:56:57;4.10;;;2.90;;
24143;SDS011;12307;50.828;6.080;2023-11-21T10:59:25;3.60;;;2.90;;
24143;SDS011;12307;50.828;6.080;2023-11-21T11:01:53;4.45;;;3.03;;
24143;SDS011;12307;50.828;6.080;2023-11-21T11:04:22;3.65;;;2.80;;
24143;SDS011;12307;50.828;6.080;2023-11-21T11:06:50;3.22;;;2.88;;
24143;SDS011;12307;50.828;6.080;2023-11-21T11:09:19;3.67;;;3.00;;
24143;SDS011;12307;50.828;6.080;2023-11-21T11:11:45;3.40;;;2.80;;
24143;SDS011;12307;50.828;6.080;2023-11-21T11:14:13;2.97;;;2.67;;
24143;SDS011;12307;50.828;6.080;2023-11-21T11:16:39;3.20;;;2.60;;
24143;SDS011;12307;50.828;6.080;2023-11-21T11:19:08;3.33;;;2.83;;
24143;SDS011;12307;50.828;6.080;2023-11-21T11:21:37;4.20;;;2.60;;
24143;SDS011;12307;50.828;6.080;2023-11-21T11:24:23;3.65;;;2.70;;
24143;SDS011;12307;50.828;6.080;2023-11-21T11:27:15;3.50;;;2.97;;
24143;SDS011;12307;50.828;6.080;2023-11-21T11:29:59;2.80;;;2.50;;
24143;SDS011;12307;50.828;6.080;2023-11-21T11:32:37;3.28;;;2.65;;
24143;SDS011;12307;50.828;6.080;2023-11-21T11:35:13;3.80;;;3.15;;
24143;SDS011;12307;50.828;6.080;2023-11-21T11:37:49;3.05;;;2.70;;
24143;SDS011;12307;50.828;6.080;2023-11-21T11:40:14;3.35;;;2.70;;
24143;SDS011;12307;50.828;6.080;2023-11-21T11:42:51;4.35;;;3.00;;
24143;SDS011;12307;50.828;6.080;2023-11-21T11:45:22;3.75;;;3.08;;
24143;SDS011;12307;50.828;6.080;2023-11-21T11:47:56;3.28;;;2.67;;
24143;SDS011;12307;50.828;6.080;2023-11-21T11:50:22;3.67;;;3.03;;
24143;SDS011;12307;50.828;6.080;2023-11-21T11:52:50;3.53;;;2.80;;
24143;SDS011;12307;50.828;6.080;2023-11-21T11:55:17;3.38;;;2.88;;
24143;SDS011;12307;50.828;6.080;2023-11-21T11:57:44;3.13;;;2.50;;
24143;SDS011;12307;50.828;6.080;2023-11-21T12:00:16;3.25;;;2.95;;
24143;SDS011;12307;50.828;6.080;2023-11-21T12:02:47;2.78;;;2.40;;
24143;SDS011;12307;50.828;6.080;2023-11-21T12:05:14;3.88;;;2.70;;
24143;SDS011;12307;50.828;6.080;2023-11-21T12:07:44;2.95;;;2.60;;
24143;SDS011;12307;50.828;6.080;2023-11-21T12:10:13;3.00;;;2.70;;
24143;SDS011;12307;50.828;6.080;2023-11-21T12:12:43;3.05;;;2.72;;
24143;SDS011;12307;50.828;6.080;2023-11-21T12:15:13;3.15;;;2.72;;
24143;SDS011;12307;50.828;6.080;2023-11-21T12:17:39;3.33;;;2.22;;
24143;SDS011;12307;50.828;6.080;2023-11-21T12:20:08;3.95;;;2.72;;
24143;SDS011;12307;50.828;6.080;2023-11-21T12:22:41;3.47;;;2.35;;
24143;SDS011;12307;50.828;6.080;2023-11-21T12:25:07;3.15;;;2.80;;
24143;SDS011;12307;50.828;6.080;2023-11-21T12:27:33;3.97;;;2.67;;
24143;SDS011;12307;50.828;6.080;2023-11-21T12:30:00;2.58;;;2.20;;
24143;SDS011;12307;50.828;6.080;2023-11-21T12:32:25;3.63;;;2.67;;
24143;SDS011;12307;50.828;6.080;2023-11-21T12:34:51;3.17;;;2.70;;
24143;SDS011;12307;50.828;6.080;2023-11-21T12:37:18;2.95;;;2.65;;
24143;SDS011;12307;50.828;6.080;2023-11-21T12:39:44;4.07;;;2.80;;
24143;SDS011;12307;50.828;6.080;2023-11-21T12:42:10;3.38;;;2.70;;
24143;SDS011;12307;50.828;6.080;2023-11-21T12:44:36;3.00;;;2.38;;
24143;SDS011;12307;50.828;6.080;2023-11-21T12:47:06;2.83;;;2.30;;
24143;SDS011;12307;50.828;6.080;2023-11-21T12:49:32;4.43;;;2.90;;
24143;SDS011;12307;50.828;6.080;2023-11-21T12:51:59;3.85;;;2.80;;
24143;SDS011;12307;50.828;6.080;2023-11-21T12:54:26;3.20;;;2.55;;
24143;SDS011;12307;50.828;6.080;2023-11-21T12:56:52;2.80;;;2.50;;
24143;SDS011;12307;50.828;6.080;2023-11-21T12:59:20;3.55;;;2.58;;
24143;SDS011;12307;50.828;6.080;2023-11-21T13:01:46;3.10;;;2.65;;
24143;SDS011;12307;50.828;6.080;2023-11-21T13:04:12;3.03;;;2.60;;
24143;SDS011;12307;50.828;6.080;2023-11-21T13:06:38;3.28;;;2.50;;
24143;SDS011;12307;50.828;6.080;2023-11-21T13:09:06;2.80;;;2.45;;
24143;SDS011;12307;50.828;6.080;2023-11-21T13:11:35;2.35;;;2.10;;
24143;SDS011;12307;50.828;6.080;2023-11-21T13:14:01;2.90;;;2.50;;
24143;SDS011;12307;50.828;6.080;2023-11-21T13:16:28;3.42;;;2.70;;
24143;SDS011;12307;50.828;6.080;2023-11-21T13:18:55;3.50;;;2.78;;
24143;SDS011;12307;50.828;6.080;2023-11-21T13:21:21;3.10;;;2.50;;
24143;SDS011;12307;50.828;6.080;2023-11-21T13:23:47;2.50;;;2.30;;
24143;SDS011;12307;50.828;6.080;2023-11-21T13:26:16;3.00;;;2.70;;
24143;SDS011;12307;50.828;6.080;2023-11-21T13:28:43;3.25;;;2.83;;
24143;SDS011;12307;50.828;6.080;2023-11-21T13:31:12;3.63;;;2.70;;
24143;SDS011;12307;50.828;6.080;2023-11-21T13:33:52;3.08;;;2.38;;
24143;SDS011;12307;50.828;6.080;2023-11-21T13:36:21;2.95;;;2.58;;
24143;SDS011;12307;50.828;6.080;2023-11-21T13:38:48;2.95;;;2.58;;
24143;SDS011;12307;50.828;6.080;2023-11-21T13:41:14;3.42;;;2.70;;
24143;SDS011;12307;50.828;6.080;2023-11-21T13:43:43;3.05;;;2.75;;
24143;SDS011;12307;50.828;6.080;2023-11-21T13:46:14;3.00;;;2.50;;
24143;SDS011;12307;50.828;6.080;2023-11-21T13:48:42;2.80;;;2.50;;
24143;SDS011;12307;50.828;6.080;2023-11-21T13:51:13;2.70;;;2.40;;
24143;SDS011;12307;50.828;6.080;2023-11-21T13:53:42;2.95;;;2.58;;
24143;SDS011;12307;50.828;6.080;2023-11-21T13:56:09;3.08;;;2.50;;
24143;SDS011;12307;50.828;6.080;2023-11-21T13:58:35;3.53;;;2.50;;
24143;SDS011;12307;50.828;6.080;2023-11-21T14:01:17;3.42;;;2.75;;
24143;SDS011;12307;50.828;6.080;2023-11-21T14:04:07;2.70;;;2.28;;
24143;SDS011;12307;50.828;6.080;2023-11-21T14:06:42;3.25;;;2.40;;
24143;SDS011;12307;50.828;6.080;2023-11-21T14:09:14;3.00;;;2.63;;
24143;SDS011;12307;50.828;6.080;2023-11-21T14:11:48;2.70;;;2.50;;
24143;SDS011;12307;50.828;6.080;2023-11-21T14:14:15;3.05;;;2.60;;
24143;SDS011;12307;50.828;6.080;2023-11-21T14:16:44;2.90;;;2.60;;
24143;SDS011;12307;50.828;6.080;2023-11-21T14:19:10;3.90;;;2.55;;
24143;SDS011;12307;50.828;6.080;2023-11-21T14:21:42;3.15;;;2.58;;
24143;SDS011;12307;50.828;6.080;2023-11-21T14:24:08;2.63;;;2.42;;
24143;SDS011;12307;50.828;6.080;2023-11-21T14:26:34;2.55;;;2.28;;
24143;SDS011;12307;50.828;6.080;2023-11-21T14:29:00;2.92;;;2.47;;
24143;SDS011;12307;50.828;6.080;2023-11-21T14:31:26;2.67;;;2.33;;
24143;SDS011;12307;50.828;6.080;2023-11-21T14:33:56;2.90;;;2.60;;
24143;SDS011;12307;50.828;6.080;2023-11-21T14:36:22;2.90;;;2.60;;
24143;SDS011;12307;50.828;6.080;2023-11-21T14:38:49;2.72;;;2.30;;
24143;SDS011;12307;50.828;6.080;2023-11-21T14:41:14;2.47;;;2.28;;
24143;SDS011;12307;50.828;6.080;2023-11-21T14:43:40;3.38;;;2.65;;
24143;SDS011;12307;50.828;6.080;2023-11-21T14:46:07;3.28;;;2.60;;
24143;SDS011;12307;50.828;6.080;2023-11-21T14:48:35;3.00;;;2.53;;